createdAt,value
2022-12-12T00:01:16.710Z,100247.72
2022-12-12T00:03:44.255Z,100245.75
2022-12-12T00:06:11.724Z,100246.03
2022-12-12T00:08:39.140Z,100234.69
2022-12-12T00:12:31.646Z,100236.91
2022-12-12T00:14:59.064Z,100243.75
2022-12-12T00:17:26.459Z,100247.56
2022-12-12T00:19:53.853Z,100244.09
2022-12-12T00:22:21.247Z,100249.09
2022-12-12T00:24:48.636Z,100253.19
2022-12-12T00:27:16.032Z,100255.44
2022-12-12T00:29:44.725Z,100248.06
2022-12-12T00:32:12.115Z,100248.91
2022-12-12T00:34:39.649Z,100242.75
2022-12-12T00:37:07.134Z,100243.88
2022-12-12T00:39:34.765Z,100240.69
2022-12-12T00:42:02.152Z,100246.28
2022-12-12T00:44:29.562Z,100237.47
2022-12-12T00:46:58.219Z,100237.63
2022-12-12T00:49:25.619Z,100238.16
2022-12-12T00:51:53.013Z,100238.31
2022-12-12T00:54:20.458Z,100245.31
2022-12-12T00:56:47.841Z,100256.66
2022-12-12T00:59:15.584Z,100255.13
2022-12-12T01:01:43.035Z,100268.28
2022-12-12T01:04:11.931Z,100265.94
2022-12-12T01:06:39.344Z,100267.44
2022-12-12T01:09:06.717Z,100271.25
2022-12-12T01:11:34.191Z,100274.75
2022-12-12T01:14:01.744Z,100281.78
2022-12-12T01:16:29.861Z,100273.59
2022-12-12T01:18:57.247Z,100273.38
2022-12-12T01:21:25.943Z,100270.25
2022-12-12T01:23:53.384Z,100275.88
2022-12-12T01:26:21.915Z,100274.06
2022-12-12T01:28:49.303Z,100278.38
2022-12-12T01:31:16.883Z,100286.53
2022-12-12T01:33:45.843Z,100287.66
2022-12-12T01:36:16.405Z,100292.03
2022-12-12T01:38:45.814Z,100290.34
2022-12-12T01:41:13.316Z,100287.66
2022-12-12T01:43:40.705Z,100288.66
2022-12-12T01:46:40.566Z,100288.78
2022-12-12T01:49:17.888Z,100280.97
2022-12-12T01:51:46.825Z,100287.97
2022-12-12T01:54:16.864Z,100293.16
2022-12-12T01:56:44.331Z,100279.28
2022-12-12T01:59:12.330Z,100281.28
2022-12-12T02:01:39.781Z,100272.13
2022-12-12T02:04:07.761Z,100269.34
2022-12-12T02:06:35.562Z,100261.88
2022-12-12T02:09:05.947Z,100263.03
2022-12-12T02:11:38.567Z,100260.81
2022-12-12T02:14:06.034Z,100264.84
2022-12-12T02:16:40.108Z,100263.31
2022-12-12T02:19:18.274Z,100270.00
2022-12-12T02:21:47.264Z,100277.59
2022-12-12T02:24:37.548Z,100279.16
2022-12-12T02:27:18.369Z,100281.13
2022-12-12T02:30:05.866Z,100276.25
2022-12-12T02:32:56.403Z,100272.59
2022-12-12T02:35:29.323Z,100272.44
2022-12-12T02:38:00.312Z,100273.97
2022-12-12T02:40:29.750Z,100270.47
2022-12-12T02:42:59.979Z,100277.94
2022-12-12T02:45:32.092Z,100288.25
2022-12-12T02:48:02.209Z,100295.84
2022-12-12T02:50:29.619Z,100297.38
2022-12-12T02:52:57.091Z,100299.91
2022-12-12T02:55:24.478Z,100303.69
2022-12-12T02:57:51.885Z,100301.72
2022-12-12T03:00:19.585Z,100303.41
2022-12-12T03:03:26.173Z,100301.16
2022-12-12T03:06:17.302Z,100297.38
2022-12-12T03:08:49.791Z,100297.25
2022-12-12T03:11:21.237Z,100297.25
2022-12-12T03:13:52.518Z,100300.34
2022-12-12T03:16:25.197Z,100293.91
2022-12-12T03:18:57.770Z,100309.88
2022-12-12T03:21:27.144Z,100302.84
2022-12-12T03:23:55.636Z,100305.53
2022-12-12T03:26:25.831Z,100306.50
2022-12-12T03:28:54.735Z,100308.88
2022-12-12T03:31:24.196Z,100297.13
2022-12-12T03:33:53.313Z,100304.28
2022-12-12T03:36:23.562Z,100295.31
2022-12-12T03:38:56.958Z,100295.03
2022-12-12T03:41:26.006Z,100290.84
2022-12-12T03:43:56.000Z,100292.91
2022-12-12T03:46:25.655Z,100287.00
2022-12-12T03:48:54.939Z,100284.19
2022-12-12T03:51:25.443Z,100291.47
2022-12-12T03:53:54.099Z,100291.84
2022-12-12T03:56:23.729Z,100289.19
2022-12-12T03:58:52.317Z,100292.72
2022-12-12T04:01:20.218Z,100290.03
2022-12-12T04:03:50.671Z,100289.03
2022-12-12T04:06:29.075Z,100296.34
2022-12-12T04:09:16.712Z,100290.88
2022-12-12T04:12:09.239Z,100288.50
2022-12-12T04:14:46.213Z,100286.69
2022-12-12T04:17:14.774Z,100295.38
2022-12-12T04:20:02.755Z,100295.38
2022-12-12T04:22:51.507Z,100290.19
2022-12-12T04:25:28.640Z,100292.16
2022-12-12T04:27:55.122Z,100283.31
2022-12-12T04:30:22.500Z,100283.31
2022-12-12T04:32:50.414Z,100290.47
2022-12-12T04:35:18.547Z,100286.84
2022-12-12T04:37:47.054Z,100278.16
2022-12-12T04:40:15.467Z,100279.97
2022-12-12T04:42:45.309Z,100284.03
2022-12-12T04:45:15.462Z,100280.66
2022-12-12T04:47:44.154Z,100278.00
2022-12-12T04:50:11.554Z,100280.50
2022-12-12T04:52:38.936Z,100285.97
2022-12-12T04:55:07.058Z,100284.03
2022-12-12T04:57:39.724Z,100293.38
2022-12-12T05:00:09.987Z,100283.19
2022-12-12T05:02:40.597Z,100291.03
2022-12-12T05:05:09.197Z,100289.38
2022-12-12T05:07:40.051Z,100291.31
2022-12-12T05:10:08.558Z,100292.16
2022-12-12T05:12:40.656Z,100296.50
2022-12-12T05:15:10.426Z,100293.00
2022-12-12T05:17:42.059Z,100294.69
2022-12-12T05:20:10.494Z,100301.13
2022-12-12T05:22:37.897Z,100293.81
2022-12-12T05:25:06.454Z,100304.63
2022-12-12T05:27:33.878Z,100308.00
2022-12-12T05:30:01.263Z,100300.84
2022-12-12T05:32:29.953Z,100296.34
2022-12-12T05:34:57.350Z,100305.00
2022-12-12T05:37:24.798Z,100300.00
2022-12-12T05:39:52.830Z,100302.22
2022-12-12T05:42:20.228Z,100295.50
2022-12-12T05:44:47.631Z,100290.72
2022-12-12T05:47:15.022Z,100293.69
2022-12-12T05:49:43.695Z,100298.03
2022-12-12T05:52:11.108Z,100297.88
2022-12-12T05:54:40.252Z,100296.06
2022-12-12T05:57:07.659Z,100302.34
2022-12-12T05:59:35.068Z,100304.03
2022-12-12T06:02:02.512Z,100303.22
2022-12-12T06:04:31.194Z,100301.38
2022-12-12T06:06:59.965Z,100297.75
2022-12-12T06:09:27.812Z,100303.06
2022-12-12T06:11:55.189Z,100303.75
2022-12-12T06:14:22.600Z,100295.75
2022-12-12T06:16:50.004Z,100305.41
2022-12-12T06:19:18.734Z,100305.72
2022-12-12T06:21:46.132Z,100305.72
2022-12-12T06:24:14.818Z,100312.59
2022-12-12T06:26:42.211Z,100321.19
2022-12-12T06:29:09.620Z,100318.66
2022-12-12T06:31:37.234Z,100320.31
2022-12-12T06:34:04.719Z,100326.31
2022-12-12T06:36:32.119Z,100327.84
2022-12-12T06:39:00.326Z,100335.03
2022-12-12T06:41:30.362Z,100329.13
2022-12-12T06:43:57.838Z,100334.22
2022-12-12T06:46:26.514Z,100330.56
2022-12-12T06:48:54.423Z,100334.22
2022-12-12T06:51:23.434Z,100338.84
2022-12-12T06:53:51.019Z,100335.34
2022-12-12T06:56:20.036Z,100332.81
2022-12-12T06:58:49.160Z,100343.47
2022-12-12T07:01:18.738Z,100339.16
2022-12-12T07:03:46.420Z,100334.81
2022-12-12T07:06:13.965Z,100342.63
2022-12-12T07:08:41.552Z,100347.41
2022-12-12T07:11:11.078Z,100336.78
2022-12-12T07:13:38.524Z,100340.28
2022-12-12T07:16:07.918Z,100345.72
2022-12-12T07:18:35.420Z,100348.53
2022-12-12T07:21:04.422Z,100349.53
2022-12-12T07:23:31.828Z,100359.03
2022-12-12T07:25:59.210Z,100359.03
2022-12-12T07:28:26.882Z,100358.06
2022-12-12T07:30:54.311Z,100351.19
2022-12-12T07:33:23.029Z,100365.50
2022-12-12T07:35:50.435Z,100367.31
2022-12-12T07:38:17.844Z,100363.69
2022-12-12T07:40:45.232Z,100364.38
2022-12-12T07:43:12.639Z,100368.72
2022-12-12T07:45:40.114Z,100372.34
2022-12-12T07:48:07.524Z,100373.19
2022-12-12T07:50:36.210Z,100379.38
2022-12-12T07:53:03.604Z,100372.34
2022-12-12T07:55:31.189Z,100377.97
2022-12-12T07:57:58.885Z,100377.69
2022-12-12T08:00:26.437Z,100387.63
2022-12-12T08:02:53.830Z,100385.81
2022-12-12T08:05:21.554Z,100390.00
2022-12-12T08:07:50.285Z,100392.38
2022-12-12T08:10:18.044Z,100393.50
2022-12-12T08:12:45.435Z,100397.00
2022-12-12T08:15:13.367Z,100397.00
2022-12-12T08:17:40.935Z,100396.72
2022-12-12T08:20:09.462Z,100401.22
2022-12-12T08:22:36.900Z,100405.38
2022-12-12T08:25:06.417Z,100409.75
2022-12-12T08:27:33.838Z,100406.94
2022-12-12T08:30:01.231Z,100412.13
2022-12-12T08:32:28.618Z,100402.59
2022-12-12T08:34:56.921Z,100406.25
2022-12-12T08:37:24.318Z,100411.25
2022-12-12T08:39:55.548Z,100408.03
2022-12-12T08:42:24.588Z,100409.59
2022-12-12T08:44:52.222Z,100419.09
2022-12-12T08:47:19.636Z,100422.75
2022-12-12T08:49:47.018Z,100421.06
2022-12-12T08:52:14.403Z,100428.38
2022-12-12T08:54:41.811Z,100432.88
2022-12-12T08:57:09.217Z,100426.69
2022-12-12T08:59:37.898Z,100435.38
2022-12-12T09:02:05.415Z,100435.38
2022-12-12T09:04:34.687Z,100439.03
2022-12-12T09:07:08.064Z,100441.69
2022-12-12T09:09:35.967Z,100443.50
2022-12-12T09:12:03.354Z,100438.19
2022-12-12T09:14:30.755Z,100442.66
2022-12-12T09:16:59.479Z,100442.66
2022-12-12T09:19:26.894Z,100447.00
2022-12-12T09:21:54.290Z,100455.69
2022-12-12T09:24:23.887Z,100453.03
2022-12-12T09:26:51.274Z,100460.72
2022-12-12T09:29:18.666Z,100461.69
2022-12-12T09:31:46.142Z,100459.34
2022-12-12T09:34:14.861Z,100465.50
2022-12-12T09:36:42.253Z,100457.53
2022-12-12T09:39:09.637Z,100460.03
2022-12-12T09:41:37.029Z,100459.19
2022-12-12T09:44:06.858Z,100461.69
2022-12-12T09:46:38.324Z,100468.16
2022-12-12T09:49:15.435Z,100469.69
2022-12-12T09:51:43.929Z,100471.25
2022-12-12T09:54:14.348Z,100467.75
2022-12-12T09:56:45.393Z,100470.53
2022-12-12T09:59:16.096Z,100465.09
2022-12-12T10:01:50.754Z,100467.03
2022-12-12T10:04:22.963Z,100459.75
2022-12-12T10:06:54.570Z,100461.56
2022-12-12T10:09:36.383Z,100457.78
2022-12-12T10:12:08.088Z,100461.41
2022-12-12T10:14:38.669Z,100460.44
2022-12-12T10:17:08.668Z,100462.41
2022-12-12T10:19:42.532Z,100456.38
2022-12-12T10:22:16.577Z,100464.50
2022-12-12T10:24:46.296Z,100465.09
2022-12-12T10:27:14.959Z,100465.09
2022-12-12T10:29:44.683Z,100477.66
2022-12-12T10:32:15.132Z,100468.84
2022-12-12T10:34:51.476Z,100467.88
2022-12-12T10:37:26.691Z,100469.53
2022-12-12T10:39:59.449Z,100466.59
2022-12-12T10:42:28.768Z,100464.06
2022-12-12T10:45:04.512Z,100474.44
2022-12-12T10:47:31.913Z,100469.25
2022-12-12T10:50:06.344Z,100470.94
2022-12-12T10:52:36.117Z,100465.50
2022-12-12T10:55:03.575Z,100466.19
2022-12-12T10:57:35.146Z,100467.00
2022-12-12T11:00:02.942Z,100470.50
2022-12-12T11:02:35.952Z,100474.72
2022-12-12T11:05:09.178Z,100471.22
2022-12-12T11:07:39.775Z,100471.91
2022-12-12T11:10:21.253Z,100473.72
2022-12-12T11:12:52.235Z,100462.91
2022-12-12T11:15:19.650Z,100465.72
2022-12-12T11:17:47.044Z,100466.44
2022-12-12T11:20:18.688Z,100467.28
2022-12-12T11:22:46.087Z,100466.28
2022-12-12T11:25:27.183Z,100461.41
2022-12-12T11:27:54.660Z,100458.22
2022-12-12T11:30:27.427Z,100459.41
2022-12-12T11:32:55.324Z,100466.84
2022-12-12T11:35:25.355Z,100458.22
2022-12-12T11:37:54.740Z,100462.63
2022-12-12T11:40:24.588Z,100466.13
2022-12-12T11:42:51.989Z,100459.34
2022-12-12T11:45:24.198Z,100466.75
2022-12-12T11:47:51.633Z,100459.78
2022-12-12T11:50:21.233Z,100456.22
2022-12-12T11:52:50.342Z,100458.81
2022-12-12T11:55:18.609Z,100460.41
2022-12-12T11:58:01.844Z,100462.06
2022-12-12T12:00:32.409Z,100461.13
2022-12-12T12:03:13.296Z,100462.47
2022-12-12T12:05:47.506Z,100459.69
2022-12-12T12:08:25.599Z,100459.69
2022-12-12T12:11:00.496Z,100472.47
2022-12-12T12:13:40.740Z,100477.28
2022-12-12T12:16:11.030Z,100477.31
2022-12-12T12:18:45.770Z,100479.91
2022-12-12T12:21:22.734Z,100484.63
2022-12-12T12:23:54.279Z,100478.09
2022-12-12T12:26:25.754Z,100483.78
2022-12-12T12:29:03.582Z,100481.31
2022-12-12T12:31:33.659Z,100482.22
2022-12-12T12:34:05.798Z,100486.03
2022-12-12T12:36:37.345Z,100487.22
2022-12-12T12:39:12.841Z,100487.94
2022-12-12T12:41:50.677Z,100480.41
2022-12-12T12:44:29.477Z,100484.47
2022-12-12T12:47:00.893Z,100493.88
2022-12-12T12:49:29.604Z,100483.97
2022-12-12T12:51:58.529Z,100488.03
2022-12-12T12:54:29.299Z,100492.38
2022-12-12T12:56:58.336Z,100490.28
2022-12-12T12:59:28.930Z,100490.03
2022-12-12T13:01:56.388Z,100490.75
2022-12-12T13:04:25.330Z,100480.56
2022-12-12T13:06:54.768Z,100482.22
2022-12-12T13:09:28.023Z,100476.66
2022-12-12T13:11:57.845Z,100476.53
2022-12-12T13:14:30.446Z,100487.63
2022-12-12T13:16:58.145Z,100486.78
2022-12-12T13:19:28.930Z,100484.69
2022-12-12T13:21:59.282Z,100492.13
2022-12-12T13:24:30.758Z,100493.81
2022-12-12T13:27:00.515Z,100491.31
2022-12-12T13:29:34.558Z,100487.97
2022-12-12T13:32:28.712Z,100491.31
2022-12-12T13:34:56.939Z,100504.34
2022-12-12T13:37:24.348Z,100496.09
2022-12-12T13:40:00.223Z,100492.03
2022-12-12T13:42:27.787Z,100498.47
2022-12-12T13:44:55.195Z,100497.78
2022-12-12T13:48:00.281Z,100498.47
2022-12-12T13:50:27.681Z,100506.75
2022-12-12T13:53:19.373Z,100507.16
2022-12-12T13:55:48.068Z,100510.09
2022-12-12T13:58:33.533Z,100512.47
2022-12-12T14:01:31.465Z,100500.88
2022-12-12T14:03:59.249Z,100506.47
2022-12-12T14:06:28.625Z,100508.19
2022-12-12T14:08:56.080Z,100512.38
2022-12-12T14:11:30.585Z,100507.63
2022-12-12T14:14:05.797Z,100506.53
2022-12-12T14:16:33.182Z,100513.63
2022-12-12T14:19:03.448Z,100511.84
2022-12-12T14:21:42.425Z,100513.50
2022-12-12T14:24:48.507Z,100522.16
2022-12-12T14:27:17.324Z,100514.63
2022-12-12T14:29:44.890Z,100510.16
2022-12-12T14:32:31.758Z,100510.03
2022-12-12T14:35:02.975Z,100515.50
2022-12-12T14:37:40.642Z,100517.28
2022-12-12T14:40:13.865Z,100522.47
2022-12-12T14:43:19.173Z,100515.06
2022-12-12T14:45:37.703Z,100522.34
2022-12-12T14:48:16.847Z,100523.34
2022-12-12T14:50:49.011Z,100520.50
2022-12-12T14:53:17.418Z,100524.59
2022-12-12T14:55:49.253Z,100526.13
2022-12-12T14:58:20.957Z,100526.25
2022-12-12T15:00:49.283Z,100533.13
2022-12-12T15:03:16.741Z,100530.59
2022-12-12T15:05:44.195Z,100538.59
2022-12-12T15:08:18.259Z,100540.16
2022-12-12T15:10:45.683Z,100537.31
2022-12-12T15:13:16.986Z,100546.16
2022-12-12T15:15:45.772Z,100549.53
2022-12-12T15:18:13.194Z,100548.38
2022-12-12T15:20:53.810Z,100559.03
2022-12-12T15:23:21.266Z,100555.53
2022-12-12T15:25:49.613Z,100556.78
2022-12-12T15:28:17.422Z,100551.34
2022-12-12T15:30:47.832Z,100551.47
2022-12-12T15:33:17.270Z,100540.69
2022-12-12T15:35:49.368Z,100548.69
2022-12-12T15:38:16.883Z,100551.06
2022-12-12T15:40:44.680Z,100551.06
2022-12-12T15:43:14.327Z,100552.06
2022-12-12T15:45:43.269Z,100546.03
2022-12-12T15:48:15.441Z,100545.88
2022-12-12T15:50:51.974Z,100549.25
2022-12-12T15:53:20.633Z,100551.53
2022-12-12T15:55:51.762Z,100557.81
2022-12-12T15:58:28.716Z,100554.19
2022-12-12T16:01:02.882Z,100556.72
2022-12-12T16:03:31.632Z,100561.47
2022-12-12T16:06:03.188Z,100561.34
2022-12-12T16:08:38.498Z,100561.34
2022-12-12T16:11:06.825Z,100561.41
2022-12-12T16:13:38.100Z,100563.09
2022-12-12T16:16:37.589Z,100564.34
2022-12-12T16:19:06.478Z,100568.09
2022-12-12T16:21:36.515Z,100567.25
2022-12-12T16:24:11.477Z,100569.78
2022-12-12T16:26:38.914Z,100576.34
2022-12-12T16:29:06.321Z,100580.81
2022-12-12T16:31:33.759Z,100581.81
2022-12-12T16:34:02.883Z,100577.34
2022-12-12T16:36:34.514Z,100581.81
2022-12-12T16:39:05.966Z,100585.19
2022-12-12T16:41:33.367Z,100584.91
2022-12-12T16:44:01.648Z,100589.38
2022-12-12T16:46:29.049Z,100592.16
2022-12-12T16:49:03.182Z,100589.06
2022-12-12T16:51:33.627Z,100596.06
2022-12-12T16:54:01.085Z,100589.06
2022-12-12T16:56:28.483Z,100595.94
2022-12-12T16:58:56.147Z,100587.13
2022-12-12T17:01:23.597Z,100592.44
2022-12-12T17:03:51.112Z,100583.75
2022-12-12T17:06:18.533Z,100585.44
2022-12-12T17:08:47.280Z,100595.13
2022-12-12T17:11:14.666Z,100591.59
2022-12-12T17:13:48.203Z,100595.13
2022-12-12T17:16:15.809Z,100600.44
2022-12-12T17:18:43.261Z,100588.22
2022-12-12T17:21:10.827Z,100596.78
2022-12-12T17:23:38.239Z,100604.06
2022-12-12T17:26:06.997Z,100606.97
2022-12-12T17:28:34.477Z,100608.66
2022-12-12T17:31:01.994Z,100619.31
2022-12-12T17:33:29.401Z,100616.50
2022-12-12T17:36:00.871Z,100618.44
2022-12-12T17:38:30.162Z,100616.66
2022-12-12T17:40:57.657Z,100609.63
2022-12-12T17:43:26.375Z,100613.97
2022-12-12T17:46:00.479Z,100616.50
2022-12-12T17:48:31.065Z,100617.59
2022-12-12T17:51:00.052Z,100603.34
2022-12-12T17:53:27.446Z,100599.00
2022-12-12T17:56:01.659Z,100596.22
2022-12-12T17:58:37.105Z,100600.00
2022-12-12T18:01:10.290Z,100608.94
2022-12-12T18:03:38.060Z,100598.28
2022-12-12T18:06:05.804Z,100608.94
2022-12-12T18:08:33.351Z,100600.13
2022-12-12T18:11:00.800Z,100607.97
2022-12-12T18:13:28.281Z,100601.91
2022-12-12T18:15:57.253Z,100600.00
2022-12-12T18:18:24.784Z,100604.56
2022-12-12T18:20:52.225Z,100606.41
2022-12-12T18:23:19.634Z,100617.59
2022-12-12T18:25:47.339Z,100620.53
2022-12-12T18:28:14.822Z,100615.06
2022-12-12T18:30:42.398Z,100615.22
2022-12-12T18:33:11.197Z,100608.94
2022-12-12T18:35:38.603Z,100608.22
2022-12-12T18:38:06.402Z,100610.63
2022-12-12T18:40:34.197Z,100606.41
2022-12-12T18:43:01.610Z,100611.03
2022-12-12T18:45:29.017Z,100606.28
2022-12-12T18:47:56.456Z,100619.56
2022-12-12T18:50:25.161Z,100619.69
2022-12-12T18:52:52.563Z,100619.56
2022-12-12T18:55:19.954Z,100620.66
2022-12-12T18:57:47.362Z,100621.25
2022-12-12T19:00:16.624Z,100625.13
2022-12-12T19:02:44.608Z,100628.94
2022-12-12T19:05:13.309Z,100628.78
2022-12-12T19:07:42.015Z,100624.19
2022-12-12T19:10:09.884Z,100640.25
2022-12-12T19:12:37.288Z,100629.75
2022-12-12T19:15:16.898Z,100636.47
2022-12-12T19:17:44.679Z,100632.84
2022-12-12T19:20:13.797Z,100642.53
2022-12-12T19:22:46.861Z,100640.13
2022-12-12T19:25:14.921Z,100641.78
2022-12-12T19:27:42.419Z,100632.97
2022-12-12T19:30:11.089Z,100631.06
2022-12-12T19:32:38.560Z,100633.03
2022-12-12T19:35:07.279Z,100629.94
2022-12-12T19:37:36.120Z,100640.56
2022-12-12T19:40:05.256Z,100636.34
2022-12-12T19:42:32.643Z,100636.59
2022-12-12T19:45:00.030Z,100641.09
2022-12-12T19:47:27.421Z,100636.00
2022-12-12T19:49:54.898Z,100641.13
2022-12-12T19:52:22.308Z,100652.03
2022-12-12T19:54:49.700Z,100655.09
2022-12-12T19:57:18.384Z,100655.38
2022-12-12T19:59:45.803Z,100652.28
2022-12-12T20:02:13.304Z,100652.72
2022-12-12T20:04:41.491Z,100658.88
2022-12-12T20:07:08.901Z,100657.88
2022-12-12T20:09:36.528Z,100659.00
2022-12-12T20:12:04.229Z,100658.81
2022-12-12T20:14:33.670Z,100655.84
2022-12-12T20:17:02.701Z,100644.00
2022-12-12T20:19:30.577Z,100654.56
2022-12-12T20:22:01.255Z,100660.13
2022-12-12T20:24:29.112Z,100660.81
2022-12-12T20:26:56.934Z,100663.38
2022-12-12T20:29:24.371Z,100654.56
2022-12-12T20:31:53.064Z,100660.31
2022-12-12T20:34:21.636Z,100658.75
2022-12-12T20:36:50.183Z,100663.38
2022-12-12T20:39:19.267Z,100665.31
2022-12-12T20:41:46.682Z,100668.09
2022-12-12T20:44:14.416Z,100672.06
2022-12-12T20:46:42.719Z,100669.66
2022-12-12T20:49:14.120Z,100671.47
2022-12-12T20:51:58.259Z,100673.19
2022-12-12T20:54:26.169Z,100676.56
2022-12-12T20:56:53.807Z,100674.84
2022-12-12T20:59:21.211Z,100678.59
2022-12-12T21:01:48.712Z,100677.78
2022-12-12T21:04:17.479Z,100670.06
2022-12-12T21:06:48.158Z,100675.84
2022-12-12T21:09:22.558Z,100677.06
2022-12-12T21:11:50.986Z,100678.75
2022-12-12T21:14:18.391Z,100672.94
2022-12-12T21:16:46.270Z,100672.47
2022-12-12T21:19:14.157Z,100665.44
2022-12-12T21:21:43.521Z,100663.63
2022-12-12T21:24:11.409Z,100665.31
2022-12-12T21:26:38.983Z,100669.78
2022-12-12T21:29:06.451Z,100671.47
2022-12-12T21:31:34.904Z,100673.19
2022-12-12T21:34:02.380Z,100668.81
2022-12-12T21:36:30.302Z,100673.41
2022-12-12T21:38:59.602Z,100671.47
2022-12-12T21:41:27.079Z,100667.88
2022-12-12T21:43:55.670Z,100677.78
2022-12-12T21:46:23.876Z,100671.75
2022-12-12T21:49:12.090Z,100679.56
2022-12-12T21:51:39.558Z,100675.13
2022-12-12T21:54:09.075Z,100677.06
2022-12-12T21:56:36.630Z,100670.91
2022-12-12T21:59:04.183Z,100674.25
2022-12-12T22:01:31.967Z,100672.59
2022-12-12T22:03:59.529Z,100675.38
2022-12-12T22:06:27.629Z,100671.59
2022-12-12T22:08:55.087Z,100673.69
2022-12-12T22:11:40.090Z,100671.03
2022-12-12T22:14:09.852Z,100674.53
2022-12-12T22:16:37.581Z,100677.34
2022-12-12T22:19:06.273Z,100672.84
2022-12-12T22:21:33.890Z,100675.50
2022-12-12T22:24:01.526Z,100671.88
2022-12-12T22:26:30.783Z,100683.34
2022-12-12T22:28:58.858Z,100677.34
2022-12-12T22:31:27.211Z,100673.81
2022-12-12T22:33:55.418Z,100673.69
2022-12-12T22:36:25.173Z,100677.22
2022-12-12T22:38:53.119Z,100670.19
2022-12-12T22:41:20.581Z,100672.72
2022-12-12T22:43:49.308Z,100674.69
2022-12-12T22:46:16.742Z,100661.38
2022-12-12T22:48:44.199Z,100669.50
2022-12-12T22:51:13.753Z,100676.72
2022-12-12T22:53:44.434Z,100682.28
2022-12-12T22:56:12.164Z,100687.44
2022-12-12T22:58:39.615Z,100682.97
2022-12-12T23:01:09.825Z,100688.44
2022-12-12T23:03:37.357Z,100687.97
2022-12-12T23:06:05.451Z,100683.38
2022-12-12T23:08:32.894Z,100679.75
2022-12-12T23:11:06.513Z,100679.91
2022-12-12T23:13:34.421Z,100674.06
2022-12-12T23:16:05.733Z,100692.41
2022-12-12T23:18:34.544Z,100683.72
2022-12-12T23:21:01.967Z,100692.41
2022-12-12T23:23:29.450Z,100690.84
2022-12-12T23:25:56.863Z,100691.72
2022-12-12T23:28:24.769Z,100690.72
2022-12-12T23:30:52.164Z,100694.38
2022-12-12T23:33:19.561Z,100694.38
2022-12-12T23:35:48.730Z,100679.38
2022-12-12T23:38:16.428Z,100680.34
2022-12-12T23:40:43.823Z,100688.19
2022-12-12T23:43:11.217Z,100684.13
2022-12-12T23:45:38.675Z,100689.19
2022-12-12T23:48:06.721Z,100685.28
2022-12-12T23:50:34.410Z,100683.56
2022-12-12T23:53:08.992Z,100673.09
2022-12-12T23:55:37.911Z,100671.53
2022-12-12T23:58:05.317Z,100674.19
